createdAt,value
2022-11-21T00:02:42.880Z,4.13
2022-11-21T00:06:44.976Z,5.10
2022-11-21T00:10:47.814Z,6.35
2022-11-21T00:14:49.785Z,6.53
2022-11-21T00:18:51.826Z,6.78
2022-11-21T00:22:53.906Z,5.85
2022-11-21T00:26:56.407Z,5.53
2022-11-21T00:30:58.522Z,5.18
2022-11-21T00:35:00.553Z,5.85
2022-11-21T00:39:02.609Z,4.93
2022-11-21T00:43:05.001Z,5.28
2022-11-21T00:47:07.042Z,6.07
2022-11-21T00:51:09.139Z,5.47
2022-11-21T00:55:11.259Z,4.63
2022-11-21T00:59:13.321Z,4.70
2022-11-21T01:03:15.782Z,5.03
2022-11-21T01:07:18.089Z,3.92
2022-11-21T01:11:21.633Z,4.15
2022-11-21T01:15:23.755Z,4.00
2022-11-21T01:19:25.796Z,4.32
2022-11-21T01:23:28.341Z,4.35
2022-11-21T01:27:30.371Z,4.72
2022-11-21T01:31:32.832Z,4.85
2022-11-21T01:35:34.915Z,5.13
2022-11-21T01:39:36.980Z,3.95
2022-11-21T01:43:39.543Z,3.50
2022-11-21T01:47:41.631Z,3.72
2022-11-21T01:51:52.921Z,3.75
2022-11-21T01:55:55.070Z,3.22
2022-11-21T02:00:22.126Z,3.08
2022-11-21T02:04:28.869Z,3.10
2022-11-21T02:08:31.393Z,3.20
2022-11-21T02:12:52.620Z,2.80
2022-11-21T02:17:00.499Z,2.67
2022-11-21T02:21:22.213Z,3.28
2022-11-21T02:25:27.956Z,2.97
2022-11-21T02:29:30.857Z,2.78
2022-11-21T02:33:33.003Z,3.03
2022-11-21T02:37:37.054Z,2.72
2022-11-21T02:41:47.257Z,2.90
2022-11-21T02:45:49.414Z,2.42
2022-11-21T02:49:56.366Z,2.70
2022-11-21T02:53:58.396Z,2.42
2022-11-21T02:58:04.921Z,2.53
2022-11-21T03:02:07.726Z,2.20
2022-11-21T03:06:09.746Z,2.35
2022-11-21T03:10:12.323Z,2.78
2022-11-21T03:14:16.245Z,2.30
2022-11-21T03:18:18.266Z,2.60
2022-11-21T03:22:20.380Z,2.67
2022-11-21T03:26:23.020Z,2.90
2022-11-21T03:30:27.335Z,2.88
2022-11-21T03:34:29.650Z,2.97
2022-11-21T03:38:31.950Z,2.78
2022-11-21T03:42:34.481Z,2.40
2022-11-21T03:46:38.976Z,2.75
2022-11-21T03:54:46.446Z,2.38
2022-11-21T03:58:48.541Z,3.08
2022-11-21T04:02:50.621Z,2.55
2022-11-21T04:06:52.811Z,2.85
2022-11-21T04:10:55.511Z,2.80
2022-11-21T04:14:57.563Z,2.50
2022-11-21T04:19:00.247Z,2.85
2022-11-21T04:23:02.372Z,2.50
2022-11-21T04:27:04.506Z,2.60
2022-11-21T04:31:10.695Z,2.38
2022-11-21T04:35:13.057Z,2.90
2022-11-21T04:39:15.519Z,3.03
2022-11-21T04:43:17.688Z,3.20
2022-11-21T04:47:19.705Z,3.10
2022-11-21T04:51:21.746Z,2.78
2022-11-21T04:55:27.606Z,2.97
2022-11-21T04:59:29.783Z,3.00
2022-11-21T05:03:32.246Z,3.00
2022-11-21T05:07:34.576Z,3.30
2022-11-21T05:11:55.589Z,2.67
2022-11-21T05:15:57.813Z,2.33
2022-11-21T05:19:59.825Z,3.05
2022-11-21T05:24:01.972Z,2.88
2022-11-21T05:28:04.106Z,3.42
2022-11-21T05:32:06.168Z,2.83
2022-11-21T05:36:08.171Z,2.63
2022-11-21T05:40:10.838Z,2.92
2022-11-21T05:44:12.796Z,2.83
2022-11-21T05:48:14.815Z,2.95
2022-11-21T05:52:17.560Z,3.10
2022-11-21T05:56:20.063Z,3.10
2022-11-21T06:00:22.135Z,2.90
2022-11-21T06:04:26.075Z,2.90
2022-11-21T06:08:30.108Z,2.80
2022-11-21T06:12:32.371Z,3.15
2022-11-21T06:16:34.452Z,2.92
2022-11-21T06:20:37.030Z,2.75
2022-11-21T06:24:39.123Z,3.45
2022-11-21T06:28:42.898Z,3.55
2022-11-21T06:32:45.012Z,3.73
2022-11-21T06:36:47.212Z,3.58
2022-11-21T06:40:49.306Z,3.67
2022-11-21T06:44:51.629Z,4.15
2022-11-21T06:48:54.281Z,3.35
2022-11-21T06:52:58.638Z,3.10
2022-11-21T06:57:00.759Z,3.42
2022-11-21T07:01:07.947Z,4.15
2022-11-21T07:05:10.269Z,3.47
2022-11-21T07:13:34.758Z,4.03
2022-11-21T07:17:36.735Z,3.42
2022-11-21T07:21:38.862Z,3.35
2022-11-21T07:25:41.279Z,3.53
2022-11-21T07:29:43.417Z,4.97
2022-11-21T07:33:46.899Z,4.10
2022-11-21T07:37:49.116Z,4.63
2022-11-21T07:41:51.169Z,4.03
2022-11-21T07:45:53.219Z,3.83
2022-11-21T07:49:55.261Z,4.30
2022-11-21T07:53:57.361Z,4.53
2022-11-21T07:58:00.553Z,4.85
2022-11-21T08:02:03.704Z,4.85
2022-11-21T08:06:06.060Z,6.00
2022-11-21T08:10:08.419Z,5.35
2022-11-21T08:14:10.721Z,4.78
2022-11-21T08:18:15.950Z,6.25
2022-11-21T08:22:18.043Z,5.72
2022-11-21T08:26:20.430Z,6.60
2022-11-21T08:30:22.444Z,7.40
2022-11-21T08:34:24.501Z,6.22
2022-11-21T08:38:26.773Z,6.97
2022-11-21T08:42:28.797Z,7.55
2022-11-21T08:46:33.641Z,7.32
2022-11-21T08:50:35.777Z,8.07
2022-11-21T08:54:37.904Z,8.13
2022-11-21T08:58:40.523Z,7.93
2022-11-21T09:02:42.732Z,8.52
2022-11-21T09:06:44.824Z,7.88
2022-11-21T09:10:47.129Z,8.80
2022-11-21T09:15:07.776Z,8.45
2022-11-21T09:19:10.153Z,7.03
2022-11-21T09:23:14.834Z,6.50
2022-11-21T09:27:16.874Z,6.72
2022-11-21T09:31:18.971Z,5.88
2022-11-21T09:35:21.166Z,5.68
2022-11-21T09:39:23.512Z,5.53
2022-11-21T09:43:57.814Z,5.63
2022-11-21T09:48:03.691Z,5.45
2022-11-21T09:52:06.600Z,4.80
2022-11-21T09:56:15.886Z,5.15
2022-11-21T10:00:23.640Z,4.22
2022-11-21T10:04:27.621Z,4.50
2022-11-21T10:08:41.850Z,4.40
2022-11-21T10:13:15.141Z,4.57
2022-11-21T10:17:20.779Z,4.65
2022-11-21T10:22:02.415Z,5.00
2022-11-21T10:26:24.883Z,5.38
2022-11-21T10:30:27.087Z,4.15
2022-11-21T10:34:36.634Z,4.57
2022-11-21T10:38:43.128Z,4.25
2022-11-21T10:42:53.498Z,4.80
2022-11-21T10:47:00.734Z,4.63
2022-11-21T10:51:28.937Z,4.72
2022-11-21T10:55:31.196Z,3.88
2022-11-21T10:59:33.481Z,4.03
2022-11-21T11:03:35.825Z,3.92
2022-11-21T11:07:37.959Z,3.88
2022-11-21T11:11:39.937Z,3.85
2022-11-21T11:16:01.619Z,4.22
2022-11-21T11:20:27.066Z,4.13
2022-11-21T11:24:29.159Z,4.70
2022-11-21T11:28:37.026Z,4.10
2022-11-21T11:32:41.280Z,4.00
2022-11-21T11:37:04.377Z,3.80
2022-11-21T11:41:31.231Z,4.20
2022-11-21T11:46:10.900Z,3.70
2022-11-21T11:50:19.740Z,3.53
2022-11-21T11:54:32.912Z,3.58
2022-11-21T11:58:47.296Z,3.92
2022-11-21T12:03:00.349Z,3.80
2022-11-21T12:12:02.677Z,4.03
2022-11-21T12:16:13.734Z,4.18
2022-11-21T12:20:23.085Z,3.95
2022-11-21T12:24:25.251Z,3.85
2022-11-21T12:28:42.104Z,4.18
2022-11-21T12:33:07.825Z,4.25
2022-11-21T12:37:16.926Z,4.50
2022-11-21T12:41:52.866Z,4.30
2022-11-21T12:45:57.617Z,4.35
2022-11-21T12:50:38.930Z,4.60
2022-11-21T12:55:03.738Z,4.00
2022-11-21T12:59:08.985Z,4.18
2022-11-21T13:03:29.329Z,4.00
2022-11-21T13:07:32.612Z,4.53
2022-11-21T13:12:02.231Z,4.20
2022-11-21T13:16:15.882Z,4.47
2022-11-21T13:20:31.803Z,3.83
2022-11-21T13:24:47.243Z,4.45
2022-11-21T13:28:50.077Z,3.90
2022-11-21T13:32:55.818Z,4.57
2022-11-21T13:36:58.574Z,3.80
2022-11-21T13:41:19.288Z,3.38
2022-11-21T13:45:47.113Z,3.42
2022-11-21T13:50:17.437Z,3.67
2022-11-21T13:54:47.127Z,3.60
2022-11-21T13:58:56.169Z,3.42
2022-11-21T14:03:20.417Z,3.67
2022-11-21T14:07:32.136Z,4.22
2022-11-21T14:11:49.934Z,4.30
2022-11-21T14:15:51.963Z,4.68
2022-11-21T14:19:57.728Z,4.30
2022-11-21T14:24:13.498Z,3.70
2022-11-21T14:28:25.605Z,4.35
2022-11-21T14:32:29.454Z,4.82
2022-11-21T14:36:32.873Z,4.47
2022-11-21T14:40:34.957Z,4.57
2022-11-21T14:44:37.327Z,4.68
2022-11-21T14:48:39.458Z,4.45
2022-11-21T14:52:42.034Z,4.30
2022-11-21T14:56:48.451Z,4.40
2022-11-21T15:01:05.788Z,4.00
2022-11-21T15:05:24.684Z,4.65
2022-11-21T15:14:18.541Z,4.10
2022-11-21T15:22:48.792Z,5.90
2022-11-21T15:26:51.243Z,6.07
2022-11-21T15:31:19.391Z,6.90
2022-11-21T15:35:40.180Z,5.80
2022-11-21T15:39:45.092Z,6.88
2022-11-21T15:43:55.869Z,7.40
2022-11-21T15:48:00.924Z,5.50
2022-11-21T15:52:10.098Z,7.10
2022-11-21T15:56:21.254Z,5.47
2022-11-21T15:57:13.008Z,4.38
2022-11-21T16:00:24.801Z,6.47
2022-11-21T16:04:27.411Z,5.13
2022-11-21T16:08:29.480Z,5.78
2022-11-21T16:12:31.542Z,5.35
2022-11-21T16:16:42.882Z,5.70
2022-11-21T16:20:45.574Z,7.22
2022-11-21T16:24:49.505Z,6.80
2022-11-21T16:28:53.844Z,5.57
2022-11-21T16:32:56.556Z,7.80
2022-11-21T16:37:04.219Z,6.13
2022-11-21T16:41:09.115Z,5.72
2022-11-21T16:45:11.594Z,8.02
2022-11-21T16:49:14.786Z,7.60
2022-11-21T16:53:17.088Z,7.72
2022-11-21T16:57:20.024Z,9.18
2022-11-21T17:01:24.682Z,10.07
2022-11-21T17:05:27.007Z,9.98
2022-11-21T17:09:30.153Z,13.90
2022-11-21T17:13:32.239Z,12.98
2022-11-21T17:17:34.456Z,11.35
2022-11-21T17:21:36.618Z,10.82
2022-11-21T17:25:38.829Z,12.35
2022-11-21T17:29:43.829Z,11.10
2022-11-21T17:33:51.486Z,10.63
2022-11-21T17:37:53.605Z,12.07
2022-11-21T17:41:55.771Z,15.57
2022-11-21T17:46:10.002Z,13.60
2022-11-21T17:50:12.403Z,13.90
2022-11-21T17:54:14.454Z,15.82
2022-11-21T17:58:16.528Z,12.07
2022-11-21T18:02:20.617Z,10.63
2022-11-21T18:06:23.433Z,9.77
2022-11-21T18:10:43.011Z,11.80
2022-11-21T18:14:46.126Z,6.68
2022-11-21T18:18:49.764Z,7.93
2022-11-21T18:22:52.139Z,9.20
2022-11-21T18:26:54.204Z,5.97
2022-11-21T18:31:20.683Z,11.38
2022-11-21T18:35:22.748Z,10.27
2022-11-21T18:39:27.070Z,11.05
2022-11-21T18:43:29.264Z,18.17
2022-11-21T18:47:31.563Z,10.95
2022-11-21T18:51:34.186Z,10.65
2022-11-21T18:55:40.104Z,10.13
2022-11-21T18:59:42.177Z,11.45
2022-11-21T19:03:44.997Z,8.63
2022-11-21T19:07:47.234Z,7.35
2022-11-21T19:11:49.403Z,8.82
2022-11-21T19:15:51.470Z,11.65
2022-11-21T19:19:53.768Z,9.82
2022-11-21T19:23:55.793Z,8.27
2022-11-21T19:27:59.231Z,8.73
2022-11-21T19:32:01.788Z,5.73
2022-11-21T19:36:11.604Z,4.72
2022-11-21T19:40:14.083Z,2.75
2022-11-21T19:44:16.210Z,2.78
2022-11-21T19:48:18.625Z,3.85
2022-11-21T19:52:26.461Z,3.60
2022-11-21T19:56:30.195Z,3.08
2022-11-21T20:00:32.213Z,3.20
2022-11-21T20:04:34.327Z,2.95
2022-11-21T20:08:36.453Z,3.05
2022-11-21T20:12:38.411Z,3.47
2022-11-21T20:16:44.001Z,4.32
2022-11-21T20:20:46.184Z,3.80
2022-11-21T20:24:51.774Z,3.70
2022-11-21T20:28:54.683Z,4.13
2022-11-21T20:32:56.877Z,2.40
2022-11-21T20:37:00.946Z,2.20
2022-11-21T20:41:04.980Z,1.67
2022-11-21T20:49:29.658Z,1.73
2022-11-21T20:57:54.791Z,2.00
2022-11-21T21:01:57.173Z,1.85
2022-11-21T21:06:06.824Z,1.92
2022-11-21T21:10:10.256Z,2.78
2022-11-21T21:14:12.303Z,1.77
2022-11-21T21:18:14.362Z,1.92
2022-11-21T21:22:16.442Z,1.85
2022-11-21T21:26:22.062Z,2.50
2022-11-21T21:30:24.372Z,3.20
2022-11-21T21:34:26.901Z,3.20
2022-11-21T21:38:29.027Z,4.85
2022-11-21T21:42:31.862Z,1.88
2022-11-21T21:46:34.283Z,2.42
2022-11-21T21:50:36.390Z,6.38
2022-11-21T21:54:38.511Z,3.20
2022-11-21T21:58:42.671Z,3.75
2022-11-21T22:02:44.742Z,1.35
2022-11-21T22:06:46.839Z,1.63
2022-11-21T22:10:48.927Z,4.70
2022-11-21T22:14:51.307Z,2.17
2022-11-21T22:18:53.584Z,2.22
2022-11-21T22:23:00.366Z,2.50
2022-11-21T22:27:02.915Z,1.83
2022-11-21T22:31:05.491Z,1.80
2022-11-21T22:35:07.916Z,1.95
2022-11-21T22:39:10.156Z,2.28
2022-11-21T22:43:12.859Z,2.33
2022-11-21T22:47:14.894Z,3.03
2022-11-21T22:51:29.391Z,3.85
2022-11-21T22:59:33.781Z,3.38
2022-11-21T23:03:36.207Z,3.58
2022-11-21T23:07:38.294Z,3.42
2022-11-21T23:11:41.102Z,3.15
2022-11-21T23:15:43.308Z,3.22
2022-11-21T23:19:45.414Z,2.70
2022-11-21T23:23:47.746Z,1.98
2022-11-21T23:27:49.818Z,2.00
2022-11-21T23:31:51.932Z,1.95
2022-11-21T23:35:54.313Z,1.17
2022-11-21T23:39:56.388Z,1.13
2022-11-21T23:43:59.959Z,1.15
2022-11-21T23:48:02.074Z,0.80
2022-11-21T23:52:04.197Z,1.02
2022-11-21T23:56:06.230Z,0.80
